sensor_id;sensor_type;location;lat;lon;timestamp;pressure;altitude;pressure_sealevel;temperature;humidity
68889;BME280;55930;47.412;8.790;2022-07-23T00:01:21;95007.00;;;20.23;83.29
68889;BME280;55930;47.412;8.790;2022-07-23T00:03:46;95017.69;;;20.35;84.93
68889;BME280;55930;47.412;8.790;2022-07-23T00:06:12;94991.47;;;20.35;87.09
68889;BME280;55930;47.412;8.790;2022-07-23T00:08:38;94953.88;;;20.05;91.62
68889;BME280;55930;47.412;8.790;2022-07-23T00:11:03;94914.22;;;19.87;94.43
68889;BME280;55930;47.412;8.790;2022-07-23T00:13:31;94870.19;;;19.84;95.63
68889;BME280;55930;47.412;8.790;2022-07-23T00:15:59;94843.22;;;19.71;94.64
68889;BME280;55930;47.412;8.790;2022-07-23T00:18:27;94827.31;;;19.55;97.08
68889;BME280;55930;47.412;8.790;2022-07-23T00:20:52;94824.00;;;19.62;97.08
68889;BME280;55930;47.412;8.790;2022-07-23T00:23:18;94800.16;;;19.71;94.44
68889;BME280;55930;47.412;8.790;2022-07-23T00:25:43;94794.53;;;19.69;94.59
68889;BME280;55930;47.412;8.790;2022-07-23T00:28:10;94783.06;;;19.50;95.29
68889;BME280;55930;47.412;8.790;2022-07-23T00:30:37;94777.59;;;19.56;94.25
68889;BME280;55930;47.412;8.790;2022-07-23T00:33:04;94778.63;;;19.53;92.76
68889;BME280;55930;47.412;8.790;2022-07-23T00:35:33;94767.25;;;19.41;93.34
68889;BME280;55930;47.412;8.790;2022-07-23T00:38:00;94754.91;;;19.32;93.85
68889;BME280;55930;47.412;8.790;2022-07-23T00:40:26;94736.94;;;19.40;95.57
68889;BME280;55930;47.412;8.790;2022-07-23T00:42:54;94733.25;;;19.25;97.45
68889;BME280;55930;47.412;8.790;2022-07-23T00:45:20;94732.06;;;19.07;96.23
68889;BME280;55930;47.412;8.790;2022-07-23T00:47:46;94739.72;;;19.16;93.95
68889;BME280;55930;47.412;8.790;2022-07-23T00:50:12;94737.78;;;18.98;98.12
68889;BME280;55930;47.412;8.790;2022-07-23T00:52:39;94728.50;;;18.99;98.00
68889;BME280;55930;47.412;8.790;2022-07-23T00:55:06;94730.50;;;18.93;98.60
68889;BME280;55930;47.412;8.790;2022-07-23T00:57:32;94721.56;;;18.85;100.00
68889;BME280;55930;47.412;8.790;2022-07-23T00:59:58;94716.00;;;18.83;100.00
68889;BME280;55930;47.412;8.790;2022-07-23T01:02:25;94730.47;;;18.55;100.00
68889;BME280;55930;47.412;8.790;2022-07-23T01:04:53;94732.97;;;18.72;99.26
68889;BME280;55930;47.412;8.790;2022-07-23T01:07:21;94730.44;;;18.80;97.50
68889;BME280;55930;47.412;8.790;2022-07-23T01:09:47;94722.66;;;18.76;99.29
68889;BME280;55930;47.412;8.790;2022-07-23T01:12:13;94687.00;;;18.76;96.73
68889;BME280;55930;47.412;8.790;2022-07-23T01:14:41;94674.94;;;18.82;94.96
68889;BME280;55930;47.412;8.790;2022-07-23T01:17:06;94651.91;;;18.87;94.80
68889;BME280;55930;47.412;8.790;2022-07-23T01:19:32;94654.16;;;18.83;94.89
68889;BME280;55930;47.412;8.790;2022-07-23T01:21:58;94656.84;;;18.83;94.20
68889;BME280;55930;47.412;8.790;2022-07-23T01:24:25;94649.94;;;18.87;93.54
68889;BME280;55930;47.412;8.790;2022-07-23T01:26:54;94653.06;;;18.91;93.40
68889;BME280;55930;47.412;8.790;2022-07-23T01:29:19;94649.38;;;18.76;96.41
68889;BME280;55930;47.412;8.790;2022-07-23T01:31:46;94657.25;;;18.49;98.73
68889;BME280;55930;47.412;8.790;2022-07-23T01:34:12;94665.41;;;18.44;99.31
68889;BME280;55930;47.412;8.790;2022-07-23T01:36:38;94657.22;;;18.30;100.00
68889;BME280;55930;47.412;8.790;2022-07-23T01:39:06;94666.31;;;18.27;100.00
68889;BME280;55930;47.412;8.790;2022-07-23T01:41:31;94660.69;;;18.07;100.00
68889;BME280;55930;47.412;8.790;2022-07-23T01:43:57;94659.50;;;18.26;99.78
68889;BME280;55930;47.412;8.790;2022-07-23T01:46:22;94662.28;;;18.15;100.00
68889;BME280;55930;47.412;8.790;2022-07-23T01:48:48;94666.19;;;18.14;100.00
68889;BME280;55930;47.412;8.790;2022-07-23T01:51:14;94675.44;;;18.19;100.00
68889;BME280;55930;47.412;8.790;2022-07-23T01:53:40;94679.53;;;18.25;100.00
68889;BME280;55930;47.412;8.790;2022-07-23T01:56:05;94675.88;;;18.23;100.00
68889;BME280;55930;47.412;8.790;2022-07-23T01:58:31;94664.09;;;18.07;100.00
68889;BME280;55930;47.412;8.790;2022-07-23T02:00:59;94663.34;;;18.07;100.00
68889;BME280;55930;47.412;8.790;2022-07-23T02:03:25;94674.00;;;18.18;100.00
68889;BME280;55930;47.412;8.790;2022-07-23T02:05:51;94686.03;;;18.11;100.00
68889;BME280;55930;47.412;8.790;2022-07-23T02:08:16;94688.41;;;18.15;100.00
68889;BME280;55930;47.412;8.790;2022-07-23T02:10:42;94687.44;;;18.12;100.00
68889;BME280;55930;47.412;8.790;2022-07-23T02:13:07;94682.81;;;18.13;100.00
68889;BME280;55930;47.412;8.790;2022-07-23T02:15:33;94696.69;;;18.17;100.00
68889;BME280;55930;47.412;8.790;2022-07-23T02:18:01;94702.72;;;18.23;100.00
68889;BME280;55930;47.412;8.790;2022-07-23T02:20:29;94695.25;;;18.16;100.00
68889;BME280;55930;47.412;8.790;2022-07-23T02:22:54;94685.16;;;17.97;100.00
68889;BME280;55930;47.412;8.790;2022-07-23T02:25:20;94680.94;;;18.08;100.00
68889;BME280;55930;47.412;8.790;2022-07-23T02:27:45;94677.91;;;18.17;100.00
68889;BME280;55930;47.412;8.790;2022-07-23T02:30:11;94682.69;;;17.75;100.00
68889;BME280;55930;47.412;8.790;2022-07-23T02:32:36;94670.13;;;17.89;100.00
68889;BME280;55930;47.412;8.790;2022-07-23T02:35:03;94667.50;;;18.08;100.00
68889;BME280;55930;47.412;8.790;2022-07-23T02:37:29;94662.34;;;18.10;100.00
68889;BME280;55930;47.412;8.790;2022-07-23T02:39:55;94663.81;;;18.11;100.00
68889;BME280;55930;47.412;8.790;2022-07-23T02:42:21;94666.81;;;18.26;100.00
68889;BME280;55930;47.412;8.790;2022-07-23T02:44:46;94679.19;;;18.34;99.75
68889;BME280;55930;47.412;8.790;2022-07-23T02:47:12;94674.56;;;18.29;100.00
68889;BME280;55930;47.412;8.790;2022-07-23T02:49:37;94676.88;;;18.20;100.00
68889;BME280;55930;47.412;8.790;2022-07-23T02:52:03;94691.09;;;18.15;100.00
68889;BME280;55930;47.412;8.790;2022-07-23T02:54:28;94697.50;;;17.87;100.00
68889;BME280;55930;47.412;8.790;2022-07-23T02:56:54;94704.03;;;17.92;100.00
68889;BME280;55930;47.412;8.790;2022-07-23T02:59:19;94713.16;;;18.08;100.00
68889;BME280;55930;47.412;8.790;2022-07-23T03:01:45;94736.88;;;18.04;100.00
68889;BME280;55930;47.412;8.790;2022-07-23T03:04:11;94740.50;;;18.06;100.00
68889;BME280;55930;47.412;8.790;2022-07-23T03:06:39;94751.13;;;18.17;100.00
68889;BME280;55930;47.412;8.790;2022-07-23T03:09:05;94751.41;;;18.14;100.00
68889;BME280;55930;47.412;8.790;2022-07-23T03:11:30;94724.16;;;18.04;100.00
68889;BME280;55930;47.412;8.790;2022-07-23T03:13:56;94735.19;;;18.25;100.00
68889;BME280;55930;47.412;8.790;2022-07-23T03:16:21;94753.31;;;18.19;100.00
68889;BME280;55930;47.412;8.790;2022-07-23T03:18:46;94755.31;;;18.13;100.00
68889;BME280;55930;47.412;8.790;2022-07-23T03:21:14;94740.50;;;18.30;100.00
68889;BME280;55930;47.412;8.790;2022-07-23T03:23:40;94752.25;;;18.27;100.00
68889;BME280;55930;47.412;8.790;2022-07-23T03:26:05;94733.00;;;18.23;100.00
68889;BME280;55930;47.412;8.790;2022-07-23T03:28:30;94734.16;;;18.52;100.00
68889;BME280;55930;47.412;8.790;2022-07-23T03:30:56;94736.34;;;18.54;100.00
68889;BME280;55930;47.412;8.790;2022-07-23T03:33:23;94726.66;;;18.45;100.00
68889;BME280;55930;47.412;8.790;2022-07-23T03:35:48;94716.94;;;18.42;100.00
68889;BME280;55930;47.412;8.790;2022-07-23T03:38:14;94707.09;;;18.26;100.00
68889;BME280;55930;47.412;8.790;2022-07-23T03:40:42;94684.69;;;18.42;100.00
68889;BME280;55930;47.412;8.790;2022-07-23T03:43:08;94682.75;;;18.43;100.00
68889;BME280;55930;47.412;8.790;2022-07-23T03:45:33;94683.66;;;18.45;100.00
68889;BME280;55930;47.412;8.790;2022-07-23T03:47:59;94687.72;;;18.33;100.00
68889;BME280;55930;47.412;8.790;2022-07-23T03:50:24;94674.59;;;18.48;99.07
68889;BME280;55930;47.412;8.790;2022-07-23T03:52:50;94666.78;;;18.50;98.24
68889;BME280;55930;47.412;8.790;2022-07-23T03:55:15;94666.81;;;18.45;99.99
68889;BME280;55930;47.412;8.790;2022-07-23T03:57:42;94663.78;;;18.35;100.00
68889;BME280;55930;47.412;8.790;2022-07-23T04:00:09;94665.75;;;18.34;100.00
68889;BME280;55930;47.412;8.790;2022-07-23T04:02:36;94678.44;;;18.34;100.00
68889;BME280;55930;47.412;8.790;2022-07-23T04:05:02;94687.19;;;18.16;100.00
68889;BME280;55930;47.412;8.790;2022-07-23T04:07:27;94687.03;;;18.08;100.00
68889;BME280;55930;47.412;8.790;2022-07-23T04:09:53;94689.69;;;18.32;100.00
68889;BME280;55930;47.412;8.790;2022-07-23T04:12:18;94696.63;;;18.22;99.31
68889;BME280;55930;47.412;8.790;2022-07-23T04:14:44;94704.84;;;18.30;100.00
68889;BME280;55930;47.412;8.790;2022-07-23T04:17:12;94719.56;;;18.23;100.00
68889;BME280;55930;47.412;8.790;2022-07-23T04:19:37;94744.97;;;18.22;100.00
68889;BME280;55930;47.412;8.790;2022-07-23T04:22:07;94774.13;;;18.37;100.00
68889;BME280;55930;47.412;8.790;2022-07-23T04:24:35;94788.44;;;18.45;98.65
68889;BME280;55930;47.412;8.790;2022-07-23T04:27:01;94790.94;;;18.43;99.16
68889;BME280;55930;47.412;8.790;2022-07-23T04:29:26;94779.66;;;18.45;99.37
68889;BME280;55930;47.412;8.790;2022-07-23T04:31:52;94777.28;;;18.41;100.00
68889;BME280;55930;47.412;8.790;2022-07-23T04:34:17;94780.13;;;18.49;99.16
68889;BME280;55930;47.412;8.790;2022-07-23T04:36:43;94770.22;;;18.62;97.54
68889;BME280;55930;47.412;8.790;2022-07-23T04:39:08;94771.56;;;18.50;99.04
68889;BME280;55930;47.412;8.790;2022-07-23T04:41:36;94773.78;;;18.46;99.77
68889;BME280;55930;47.412;8.790;2022-07-23T04:44:02;94778.88;;;18.50;99.69
68889;BME280;55930;47.412;8.790;2022-07-23T04:46:27;94781.41;;;18.42;100.00
68889;BME280;55930;47.412;8.790;2022-07-23T04:48:53;94790.75;;;18.35;100.00
68889;BME280;55930;47.412;8.790;2022-07-23T04:51:19;94794.94;;;18.31;100.00
68889;BME280;55930;47.412;8.790;2022-07-23T04:53:44;94799.69;;;18.19;100.00
68889;BME280;55930;47.412;8.790;2022-07-23T04:56:10;94810.63;;;18.27;100.00
68889;BME280;55930;47.412;8.790;2022-07-23T04:58:35;94816.44;;;18.31;100.00
68889;BME280;55930;47.412;8.790;2022-07-23T05:01:03;94822.22;;;18.41;100.00
68889;BME280;55930;47.412;8.790;2022-07-23T05:03:29;94827.69;;;18.54;100.00
68889;BME280;55930;47.412;8.790;2022-07-23T05:05:54;94822.81;;;18.52;97.98
68889;BME280;55930;47.412;8.790;2022-07-23T05:08:20;94816.84;;;18.41;98.60
68889;BME280;55930;47.412;8.790;2022-07-23T05:10:45;94835.19;;;18.66;97.64
68889;BME280;55930;47.412;8.790;2022-07-23T05:13:11;94845.53;;;18.57;95.40
68889;BME280;55930;47.412;8.790;2022-07-23T05:15:36;94845.66;;;18.40;96.84
68889;BME280;55930;47.412;8.790;2022-07-23T05:18:04;94846.72;;;18.02;100.00
68889;BME280;55930;47.412;8.790;2022-07-23T05:20:29;94843.06;;;17.99;100.00
68889;BME280;55930;47.412;8.790;2022-07-23T05:22:54;94853.72;;;18.10;100.00
68889;BME280;55930;47.412;8.790;2022-07-23T05:25:20;94856.34;;;17.80;100.00
68889;BME280;55930;47.412;8.790;2022-07-23T05:27:45;94863.16;;;17.87;100.00
68889;BME280;55930;47.412;8.790;2022-07-23T05:30:11;94866.41;;;17.74;100.00
68889;BME280;55930;47.412;8.790;2022-07-23T05:32:37;94871.84;;;17.63;100.00
68889;BME280;55930;47.412;8.790;2022-07-23T05:35:05;94873.22;;;17.75;100.00
68889;BME280;55930;47.412;8.790;2022-07-23T05:37:31;94881.53;;;17.77;100.00
68889;BME280;55930;47.412;8.790;2022-07-23T05:40:01;94878.56;;;17.81;100.00
68889;BME280;55930;47.412;8.790;2022-07-23T05:42:27;94874.69;;;17.76;100.00
68889;BME280;55930;47.412;8.790;2022-07-23T05:44:52;94887.78;;;17.91;100.00
68889;BME280;55930;47.412;8.790;2022-07-23T05:47:17;94884.66;;;17.81;100.00
68889;BME280;55930;47.412;8.790;2022-07-23T05:49:45;94861.47;;;17.84;100.00
68889;BME280;55930;47.412;8.790;2022-07-23T05:52:10;94869.59;;;17.73;100.00
68889;BME280;55930;47.412;8.790;2022-07-23T05:54:36;94877.84;;;17.80;100.00
68889;BME280;55930;47.412;8.790;2022-07-23T05:57:02;94874.59;;;17.93;100.00
68889;BME280;55930;47.412;8.790;2022-07-23T05:59:27;94857.44;;;18.02;100.00
68889;BME280;55930;47.412;8.790;2022-07-23T06:01:53;94839.47;;;17.91;100.00
68889;BME280;55930;47.412;8.790;2022-07-23T06:04:18;94841.69;;;17.87;100.00
68889;BME280;55930;47.412;8.790;2022-07-23T06:06:44;94836.78;;;17.91;100.00
68889;BME280;55930;47.412;8.790;2022-07-23T06:09:09;94834.47;;;18.06;100.00
68889;BME280;55930;47.412;8.790;2022-07-23T06:11:36;94828.66;;;18.02;100.00
68889;BME280;55930;47.412;8.790;2022-07-23T06:14:03;94837.63;;;18.05;100.00
68889;BME280;55930;47.412;8.790;2022-07-23T06:16:28;94847.88;;;18.06;100.00
68889;BME280;55930;47.412;8.790;2022-07-23T06:18:54;94860.38;;;17.98;100.00
68889;BME280;55930;47.412;8.790;2022-07-23T06:21:20;94854.53;;;18.00;100.00
68889;BME280;55930;47.412;8.790;2022-07-23T06:23:48;94863.38;;;17.94;100.00
68889;BME280;55930;47.412;8.790;2022-07-23T06:26:13;94876.47;;;18.04;100.00
68889;BME280;55930;47.412;8.790;2022-07-23T06:28:38;94885.16;;;18.15;100.00
68889;BME280;55930;47.412;8.790;2022-07-23T06:31:04;94888.34;;;18.14;100.00
68889;BME280;55930;47.412;8.790;2022-07-23T06:33:29;94898.66;;;18.10;100.00
68889;BME280;55930;47.412;8.790;2022-07-23T06:35:55;94907.03;;;18.30;100.00
68889;BME280;55930;47.412;8.790;2022-07-23T06:38:23;94935.09;;;18.35;100.00
68889;BME280;55930;47.412;8.790;2022-07-23T06:40:48;94928.50;;;18.30;100.00
68889;BME280;55930;47.412;8.790;2022-07-23T06:43:14;94940.53;;;18.24;100.00
68889;BME280;55930;47.412;8.790;2022-07-23T06:45:39;94937.88;;;18.18;100.00
68889;BME280;55930;47.412;8.790;2022-07-23T06:48:04;94936.88;;;18.21;100.00
68889;BME280;55930;47.412;8.790;2022-07-23T06:50:30;94928.88;;;18.16;100.00
68889;BME280;55930;47.412;8.790;2022-07-23T06:52:55;94956.41;;;18.22;100.00
68889;BME280;55930;47.412;8.790;2022-07-23T06:55:21;94930.22;;;18.28;100.00
68889;BME280;55930;47.412;8.790;2022-07-23T06:57:46;94917.31;;;18.26;100.00
68889;BME280;55930;47.412;8.790;2022-07-23T07:00:12;94923.63;;;18.34;100.00
68889;BME280;55930;47.412;8.790;2022-07-23T07:02:37;94931.84;;;18.42;100.00
68889;BME280;55930;47.412;8.790;2022-07-23T07:05:03;94925.31;;;18.32;100.00
68889;BME280;55930;47.412;8.790;2022-07-23T07:07:28;94929.38;;;18.44;100.00
68889;BME280;55930;47.412;8.790;2022-07-23T07:09:54;94930.63;;;18.43;100.00
68889;BME280;55930;47.412;8.790;2022-07-23T07:12:24;94931.03;;;18.53;100.00
68889;BME280;55930;47.412;8.790;2022-07-23T07:14:49;94925.66;;;18.58;100.00
68889;BME280;55930;47.412;8.790;2022-07-23T07:17:15;94925.28;;;18.73;100.00
68889;BME280;55930;47.412;8.790;2022-07-23T07:19:40;94935.69;;;18.82;100.00
68889;BME280;55930;47.412;8.790;2022-07-23T07:22:06;94943.13;;;18.95;100.00
68889;BME280;55930;47.412;8.790;2022-07-23T07:24:31;94942.75;;;19.09;100.00
68889;BME280;55930;47.412;8.790;2022-07-23T07:27:03;94941.13;;;19.25;100.00
68889;BME280;55930;47.412;8.790;2022-07-23T07:29:29;94943.34;;;19.45;100.00
68889;BME280;55930;47.412;8.790;2022-07-23T07:31:54;94951.38;;;19.51;100.00
68889;BME280;55930;47.412;8.790;2022-07-23T07:34:20;94952.16;;;19.46;100.00
68889;BME280;55930;47.412;8.790;2022-07-23T07:36:45;94958.03;;;19.44;100.00
68889;BME280;55930;47.412;8.790;2022-07-23T07:39:11;94971.09;;;19.10;100.00
68889;BME280;55930;47.412;8.790;2022-07-23T07:41:36;94972.88;;;19.02;99.02
68889;BME280;55930;47.412;8.790;2022-07-23T07:44:02;94985.09;;;19.03;100.00
68889;BME280;55930;47.412;8.790;2022-07-23T07:46:27;94972.38;;;18.80;100.00
68889;BME280;55930;47.412;8.790;2022-07-23T07:48:53;94957.88;;;18.53;100.00
68889;BME280;55930;47.412;8.790;2022-07-23T07:51:20;94962.22;;;18.67;100.00
68889;BME280;55930;47.412;8.790;2022-07-23T07:53:46;94965.53;;;18.79;100.00
68889;BME280;55930;47.412;8.790;2022-07-23T07:56:14;94969.50;;;18.72;100.00
68889;BME280;55930;47.412;8.790;2022-07-23T07:58:39;94966.00;;;19.07;100.00
68889;BME280;55930;47.412;8.790;2022-07-23T08:01:04;94963.66;;;19.22;100.00
68889;BME280;55930;47.412;8.790;2022-07-23T08:03:30;94962.31;;;19.10;100.00
68889;BME280;55930;47.412;8.790;2022-07-23T08:05:55;94963.81;;;19.05;100.00
68889;BME280;55930;47.412;8.790;2022-07-23T08:08:21;94969.72;;;19.28;100.00
68889;BME280;55930;47.412;8.790;2022-07-23T08:10:46;94965.78;;;19.05;100.00
68889;BME280;55930;47.412;8.790;2022-07-23T08:13:14;94956.91;;;18.86;100.00
68889;BME280;55930;47.412;8.790;2022-07-23T08:15:40;94954.38;;;18.99;100.00
68889;BME280;55930;47.412;8.790;2022-07-23T08:18:08;94960.91;;;19.03;99.40
68889;BME280;55930;47.412;8.790;2022-07-23T08:20:34;94960.81;;;19.15;100.00
68889;BME280;55930;47.412;8.790;2022-07-23T08:23:03;94952.00;;;19.14;99.67
68889;BME280;55930;47.412;8.790;2022-07-23T08:25:34;94947.41;;;19.09;99.24
68889;BME280;55930;47.412;8.790;2022-07-23T08:28:01;94936.59;;;19.15;97.55
68889;BME280;55930;47.412;8.790;2022-07-23T08:30:27;94932.44;;;19.14;96.33
68889;BME280;55930;47.412;8.790;2022-07-23T08:33:07;94915.72;;;19.45;95.68
68889;BME280;55930;47.412;8.790;2022-07-23T08:35:33;94915.72;;;19.45;96.53
68889;BME280;55930;47.412;8.790;2022-07-23T08:38:01;94917.91;;;19.65;95.26
68889;BME280;55930;47.412;8.790;2022-07-23T08:40:29;94925.78;;;19.82;92.99
68889;BME280;55930;47.412;8.790;2022-07-23T08:42:56;94939.25;;;19.82;93.37
68889;BME280;55930;47.412;8.790;2022-07-23T08:45:24;94948.34;;;19.79;94.33
68889;BME280;55930;47.412;8.790;2022-07-23T08:47:51;94957.09;;;19.85;97.15
68889;BME280;55930;47.412;8.790;2022-07-23T08:50:18;94961.44;;;19.69;96.75
68889;BME280;55930;47.412;8.790;2022-07-23T08:52:44;94972.84;;;19.32;98.09
68889;BME280;55930;47.412;8.790;2022-07-23T08:55:11;94963.19;;;19.18;96.96
68889;BME280;55930;47.412;8.790;2022-07-23T08:57:36;94965.13;;;19.23;97.73
68889;BME280;55930;47.412;8.790;2022-07-23T09:00:06;94971.59;;;19.09;97.29
68889;BME280;55930;47.412;8.790;2022-07-23T09:02:39;94967.66;;;18.86;97.87
68889;BME280;55930;47.412;8.790;2022-07-23T09:05:05;94962.19;;;19.21;98.72
68889;BME280;55930;47.412;8.790;2022-07-23T09:07:31;94959.50;;;18.97;97.52
68889;BME280;55930;47.412;8.790;2022-07-23T09:10:10;94959.28;;;19.19;96.92
68889;BME280;55930;47.412;8.790;2022-07-23T09:12:36;94964.00;;;19.13;97.42
68889;BME280;55930;47.412;8.790;2022-07-23T09:15:07;94950.94;;;18.98;97.76
68889;BME280;55930;47.412;8.790;2022-07-23T09:17:41;94961.13;;;19.05;96.68
68889;BME280;55930;47.412;8.790;2022-07-23T09:20:12;94957.38;;;19.14;96.76
68889;BME280;55930;47.412;8.790;2022-07-23T09:22:38;94956.91;;;19.34;99.00
68889;BME280;55930;47.412;8.790;2022-07-23T09:25:04;94949.66;;;19.29;97.93
68889;BME280;55930;47.412;8.790;2022-07-23T09:30:18;94955.53;;;19.28;96.94
68889;BME280;55930;47.412;8.790;2022-07-23T09:32:44;94957.16;;;19.36;95.36
68889;BME280;55930;47.412;8.790;2022-07-23T09:35:11;94953.63;;;19.47;95.01
68889;BME280;55930;47.412;8.790;2022-07-23T09:37:37;94953.56;;;19.28;93.73
68889;BME280;55930;47.412;8.790;2022-07-23T09:40:09;94954.38;;;19.66;91.38
68889;BME280;55930;47.412;8.790;2022-07-23T09:42:38;94953.34;;;19.88;94.29
68889;BME280;55930;47.412;8.790;2022-07-23T09:45:04;94960.06;;;20.00;93.17
68889;BME280;55930;47.412;8.790;2022-07-23T09:47:35;94963.41;;;19.87;92.20
68889;BME280;55930;47.412;8.790;2022-07-23T09:50:06;94962.03;;;19.81;94.64
68889;BME280;55930;47.412;8.790;2022-07-23T09:52:36;94953.94;;;19.81;94.42
68889;BME280;55930;47.412;8.790;2022-07-23T09:55:05;94966.44;;;19.60;95.83
68889;BME280;55930;47.412;8.790;2022-07-23T09:57:32;94959.13;;;19.79;95.28
68889;BME280;55930;47.412;8.790;2022-07-23T10:00:04;94962.81;;;19.76;95.55
68889;BME280;55930;47.412;8.790;2022-07-23T10:02:32;94960.44;;;19.91;95.86
68889;BME280;55930;47.412;8.790;2022-07-23T10:04:59;94966.41;;;20.03;95.20
68889;BME280;55930;47.412;8.790;2022-07-23T10:07:31;94958.50;;;20.23;93.61
68889;BME280;55930;47.412;8.790;2022-07-23T10:09:59;94964.75;;;20.82;90.30
68889;BME280;55930;47.412;8.790;2022-07-23T10:12:27;94954.84;;;20.58;89.72
68889;BME280;55930;47.412;8.790;2022-07-23T10:15:03;94960.38;;;20.92;89.07
68889;BME280;55930;47.412;8.790;2022-07-23T10:17:31;94951.38;;;21.16;86.05
68889;BME280;55930;47.412;8.790;2022-07-23T10:19:57;94953.06;;;21.32;88.13
68889;BME280;55930;47.412;8.790;2022-07-23T10:22:25;94958.78;;;21.68;86.27
68889;BME280;55930;47.412;8.790;2022-07-23T10:24:59;94963.31;;;21.73;85.71
68889;BME280;55930;47.412;8.790;2022-07-23T10:27:49;94955.59;;;22.04;82.69
68889;BME280;55930;47.412;8.790;2022-07-23T10:41:41;94966.81;;;22.42;81.90
68889;BME280;55930;47.412;8.790;2022-07-23T10:47:02;94968.81;;;21.94;82.58
68889;BME280;55930;47.412;8.790;2022-07-23T10:49:35;94960.63;;;21.87;82.43
68889;BME280;55930;47.412;8.790;2022-07-23T10:54:49;94960.16;;;22.09;80.53
68889;BME280;55930;47.412;8.790;2022-07-23T10:57:18;94962.00;;;22.48;80.72
68889;BME280;55930;47.412;8.790;2022-07-23T11:02:45;94964.78;;;22.97;76.87
68889;BME280;55930;47.412;8.790;2022-07-23T11:05:14;94955.69;;;23.44;77.48
68889;BME280;55930;47.412;8.790;2022-07-23T11:24:04;94960.63;;;23.96;70.28
68889;BME280;55930;47.412;8.790;2022-07-23T11:34:34;94943.50;;;26.16;61.56
68889;BME280;55930;47.412;8.790;2022-07-23T11:37:02;94940.00;;;26.81;59.31
68889;BME280;55930;47.412;8.790;2022-07-23T11:39:29;94937.16;;;27.72;58.43
68889;BME280;55930;47.412;8.790;2022-07-23T11:41:56;94936.91;;;27.43;58.88
68889;BME280;55930;47.412;8.790;2022-07-23T11:44:33;94939.31;;;28.45;52.57
68889;BME280;55930;47.412;8.790;2022-07-23T11:47:00;94942.47;;;29.34;51.77
68889;BME280;55930;47.412;8.790;2022-07-23T11:49:26;94932.56;;;29.48;52.15
68889;BME280;55930;47.412;8.790;2022-07-23T11:52:12;94942.00;;;28.35;54.15
68889;BME280;55930;47.412;8.790;2022-07-23T11:54:58;94950.84;;;28.80;56.26
68889;BME280;55930;47.412;8.790;2022-07-23T11:57:35;94948.28;;;28.55;54.80
68889;BME280;55930;47.412;8.790;2022-07-23T12:02:34;94934.81;;;27.52;56.56
68889;BME280;55930;47.412;8.790;2022-07-23T12:04:59;94941.78;;;29.81;51.85
68889;BME280;55930;47.412;8.790;2022-07-23T12:07:40;94936.50;;;31.90;44.46
68889;BME280;55930;47.412;8.790;2022-07-23T12:10:15;94936.69;;;30.66;44.53
68889;BME280;55930;47.412;8.790;2022-07-23T12:12:42;94937.75;;;31.56;44.68
68889;BME280;55930;47.412;8.790;2022-07-23T12:15:10;94943.28;;;31.35;43.77
68889;BME280;55930;47.412;8.790;2022-07-23T12:17:38;94943.00;;;31.31;45.87
68889;BME280;55930;47.412;8.790;2022-07-23T12:20:05;94937.22;;;32.02;46.15
68889;BME280;55930;47.412;8.790;2022-07-23T12:22:37;94933.88;;;31.16;47.20
68889;BME280;55930;47.412;8.790;2022-07-23T12:25:06;94928.66;;;31.42;45.17
68889;BME280;55930;47.412;8.790;2022-07-23T12:27:32;94946.28;;;30.87;44.75
68889;BME280;55930;47.412;8.790;2022-07-23T12:30:00;94936.81;;;32.17;41.79
68889;BME280;55930;47.412;8.790;2022-07-23T12:32:43;94929.47;;;32.32;40.79
68889;BME280;55930;47.412;8.790;2022-07-23T12:35:09;94933.38;;;32.28;42.86
68889;BME280;55930;47.412;8.790;2022-07-23T12:37:36;94933.56;;;32.09;42.96
68889;BME280;55930;47.412;8.790;2022-07-23T12:40:45;94932.97;;;33.88;39.64
68889;BME280;55930;47.412;8.790;2022-07-23T12:43:19;94930.97;;;35.35;38.56
68889;BME280;55930;47.412;8.790;2022-07-23T12:45:51;94937.19;;;33.40;42.53
68889;BME280;55930;47.412;8.790;2022-07-23T12:48:26;94934.63;;;33.93;39.37
68889;BME280;55930;47.412;8.790;2022-07-23T12:53:29;94924.94;;;33.92;38.38
68889;BME280;55930;47.412;8.790;2022-07-23T12:58:25;94912.88;;;35.32;35.63
68889;BME280;55930;47.412;8.790;2022-07-23T13:00:59;94916.28;;;35.03;38.37
68889;BME280;55930;47.412;8.790;2022-07-23T13:03:27;94910.59;;;35.85;35.56
68889;BME280;55930;47.412;8.790;2022-07-23T13:05:52;94913.78;;;33.64;37.14
68889;BME280;55930;47.412;8.790;2022-07-23T13:08:18;94903.38;;;34.52;37.36
68889;BME280;55930;47.412;8.790;2022-07-23T13:10:44;94904.72;;;33.01;39.21
68889;BME280;55930;47.412;8.790;2022-07-23T13:13:14;94902.19;;;33.66;39.14
68889;BME280;55930;47.412;8.790;2022-07-23T13:15:43;94897.91;;;34.80;36.43
68889;BME280;55930;47.412;8.790;2022-07-23T13:18:08;94902.28;;;34.85;36.47
68889;BME280;55930;47.412;8.790;2022-07-23T13:20:34;94899.19;;;35.63;34.18
68889;BME280;55930;47.412;8.790;2022-07-23T13:23:00;94897.91;;;35.50;34.83
68889;BME280;55930;47.412;8.790;2022-07-23T13:25:26;94894.66;;;36.28;34.50
68889;BME280;55930;47.412;8.790;2022-07-23T13:27:52;94896.75;;;36.14;35.08
68889;BME280;55930;47.412;8.790;2022-07-23T13:30:17;94891.91;;;35.83;35.51
68889;BME280;55930;47.412;8.790;2022-07-23T13:32:43;94892.16;;;34.89;35.12
68889;BME280;55930;47.412;8.790;2022-07-23T13:35:08;94884.72;;;34.12;36.66
68889;BME280;55930;47.412;8.790;2022-07-23T13:37:34;94886.06;;;33.60;38.88
68889;BME280;55930;47.412;8.790;2022-07-23T13:39:59;94880.09;;;31.11;42.82
68889;BME280;55930;47.412;8.790;2022-07-23T13:42:25;94886.59;;;31.93;42.58
68889;BME280;55930;47.412;8.790;2022-07-23T13:44:50;94880.19;;;32.01;42.24
68889;BME280;55930;47.412;8.790;2022-07-23T13:47:15;94880.16;;;32.80;40.26
68889;BME280;55930;47.412;8.790;2022-07-23T13:49:41;94884.38;;;34.59;37.77